createdAt,value
2024-01-24T00:00:06.115Z,178.97
2024-01-24T00:01:06.181Z,179.00
2024-01-24T00:02:06.140Z,179.11
2024-01-24T00:03:06.183Z,179.23
2024-01-24T00:04:06.199Z,179.05
2024-01-24T00:05:06.185Z,179.04
2024-01-24T00:06:06.161Z,179.23
2024-01-24T00:07:06.176Z,179.63
2024-01-24T00:08:06.169Z,179.86
2024-01-24T00:09:06.186Z,180.21
2024-01-24T00:10:06.183Z,180.31
2024-01-24T00:11:06.182Z,181.29
2024-01-24T00:12:06.240Z,180.98
2024-01-24T00:13:06.232Z,181.15
2024-01-24T00:14:06.258Z,179.95
2024-01-24T00:15:06.209Z,180.64
2024-01-24T00:16:06.240Z,180.09
2024-01-24T00:17:06.241Z,181.13
2024-01-24T00:18:06.341Z,180.81
2024-01-24T00:19:06.382Z,180.23
2024-01-24T00:20:06.310Z,180.55
2024-01-24T00:21:06.389Z,180.11
2024-01-24T00:22:06.414Z,180.21
2024-01-24T00:23:06.445Z,180.36
2024-01-24T00:24:06.488Z,180.24
2024-01-24T00:25:06.530Z,181.20
2024-01-24T00:26:06.577Z,179.84
2024-01-24T00:27:06.633Z,180.70
2024-01-24T00:28:06.653Z,181.29
2024-01-24T00:29:06.702Z,180.62
2024-01-24T00:30:06.758Z,181.00
2024-01-24T00:31:06.798Z,181.76
2024-01-24T00:32:06.846Z,180.71
2024-01-24T00:33:06.884Z,181.23
2024-01-24T00:34:07.022Z,181.27
2024-01-24T00:35:06.910Z,180.84
2024-01-24T00:36:06.916Z,181.38
2024-01-24T00:37:06.942Z,181.49
2024-01-24T00:38:06.949Z,181.66
2024-01-24T00:39:06.949Z,180.93
2024-01-24T00:40:06.977Z,181.25
2024-01-24T00:41:06.960Z,181.22
2024-01-24T00:42:07.009Z,181.18
2024-01-24T00:43:06.984Z,181.88
2024-01-24T00:44:07.002Z,181.59
2024-01-24T00:45:07.009Z,181.27
2024-01-24T00:46:07.033Z,181.32
2024-01-24T00:47:07.052Z,181.36
2024-01-24T00:48:07.065Z,181.46
2024-01-24T00:49:07.076Z,181.44
2024-01-24T00:50:07.065Z,181.38
2024-01-24T00:51:07.044Z,181.55
2024-01-24T00:52:07.046Z,181.93
2024-01-24T00:53:07.043Z,182.05
2024-01-24T00:54:07.081Z,182.69
2024-01-24T00:55:07.071Z,182.45
2024-01-24T00:56:07.066Z,182.47
2024-01-24T00:57:07.076Z,181.89
2024-01-24T00:58:07.104Z,181.64
2024-01-24T00:59:07.122Z,181.91
2024-01-24T01:00:07.181Z,181.50
2024-01-24T01:01:07.241Z,182.15
2024-01-24T01:02:07.144Z,182.50
2024-01-24T01:03:07.334Z,181.30
2024-01-24T01:04:07.255Z,182.49
2024-01-24T01:05:07.223Z,181.60
2024-01-24T01:06:07.248Z,182.00
2024-01-24T01:07:07.282Z,181.71
2024-01-24T01:08:07.339Z,181.90
2024-01-24T01:09:07.369Z,182.64
2024-01-24T01:10:07.419Z,182.35
2024-01-24T01:11:07.471Z,181.59
2024-01-24T01:12:07.514Z,181.91
2024-01-24T01:13:07.553Z,182.18
2024-01-24T01:14:07.597Z,182.39
2024-01-24T01:15:07.625Z,181.50
2024-01-24T01:16:07.682Z,182.56
2024-01-24T01:17:07.729Z,181.67
2024-01-24T01:18:07.815Z,183.01
2024-01-24T01:19:07.980Z,182.16
2024-01-24T01:20:07.877Z,182.98
2024-01-24T01:21:07.938Z,181.96
2024-01-24T01:22:07.994Z,182.18
2024-01-24T01:23:07.985Z,182.19
2024-01-24T01:24:08.044Z,182.73
2024-01-24T01:25:08.094Z,182.64
2024-01-24T01:26:08.118Z,182.55
2024-01-24T01:27:08.163Z,183.05
2024-01-24T01:28:08.232Z,181.76
2024-01-24T01:29:08.274Z,181.88
2024-01-24T01:30:08.318Z,181.32
2024-01-24T01:31:08.335Z,182.94
2024-01-24T01:32:08.399Z,181.20
2024-01-24T01:33:08.460Z,182.06
2024-01-24T01:34:08.484Z,182.11
2024-01-24T01:35:08.442Z,182.13
2024-01-24T01:36:17.420Z,182.37
2024-01-24T01:37:09.467Z,182.13
2024-01-24T01:38:08.449Z,182.34
2024-01-24T01:39:08.447Z,182.41
2024-01-24T01:40:08.439Z,183.26
2024-01-24T01:41:08.476Z,183.31
2024-01-24T01:42:08.464Z,182.88
2024-01-24T01:43:08.450Z,183.18
2024-01-24T01:44:08.460Z,182.94
2024-01-24T01:45:08.470Z,183.70
2024-01-24T01:46:08.502Z,183.53
2024-01-24T01:47:08.501Z,183.16
2024-01-24T01:48:08.548Z,183.34
2024-01-24T01:49:08.608Z,183.03
2024-01-24T01:50:08.534Z,183.66
2024-01-24T01:51:08.532Z,183.57
2024-01-24T01:52:08.557Z,182.11
2024-01-24T01:53:08.574Z,182.07
2024-01-24T01:54:08.605Z,183.00
2024-01-24T01:55:08.647Z,181.64
2024-01-24T01:56:08.679Z,183.21
2024-01-24T01:57:08.709Z,182.36
2024-01-24T01:58:08.766Z,182.64
2024-01-24T01:59:08.790Z,183.02
2024-01-24T02:00:08.840Z,182.91
2024-01-24T02:01:09.040Z,182.34
2024-01-24T02:02:08.921Z,181.85
2024-01-24T02:03:09.093Z,183.35
2024-01-24T02:04:09.044Z,182.18
2024-01-24T02:05:09.043Z,183.35
2024-01-24T02:06:09.186Z,182.73
2024-01-24T02:07:09.151Z,182.75
2024-01-24T02:08:09.114Z,182.92
2024-01-24T02:09:09.137Z,182.96
2024-01-24T02:10:09.138Z,183.50
2024-01-24T02:11:09.215Z,183.12
2024-01-24T02:12:09.164Z,182.82
2024-01-24T02:13:09.199Z,183.18
2024-01-24T02:14:09.188Z,184.35
2024-01-24T02:15:09.237Z,184.61
2024-01-24T02:16:09.211Z,183.23
2024-01-24T02:17:09.226Z,182.46
2024-01-24T02:18:09.338Z,182.65
2024-01-24T02:19:09.283Z,183.63
2024-01-24T02:20:09.233Z,183.09
2024-01-24T02:21:09.236Z,183.88
2024-01-24T02:22:09.249Z,183.40
2024-01-24T02:23:09.240Z,183.66
2024-01-24T02:24:09.248Z,183.67
2024-01-24T02:25:09.254Z,183.41
2024-01-24T02:26:09.258Z,183.70
2024-01-24T02:27:09.278Z,183.89
2024-01-24T02:28:09.359Z,183.38
2024-01-24T02:29:09.271Z,183.71
2024-01-24T02:30:09.281Z,183.80
2024-01-24T02:31:09.293Z,183.69
2024-01-24T02:32:09.309Z,184.10
2024-01-24T02:33:09.394Z,183.52
2024-01-24T02:34:09.380Z,183.32
2024-01-24T02:35:09.296Z,183.68
2024-01-24T02:36:09.320Z,184.21
2024-01-24T02:37:09.331Z,183.48
2024-01-24T02:38:09.329Z,183.87
2024-01-24T02:39:09.349Z,183.04
2024-01-24T02:40:09.382Z,183.47
2024-01-24T02:41:09.385Z,183.26
2024-01-24T02:42:09.394Z,183.35
2024-01-24T02:43:09.411Z,183.73
2024-01-24T02:44:09.420Z,183.77
2024-01-24T02:45:09.430Z,183.86
2024-01-24T02:46:09.442Z,183.35
2024-01-24T02:47:09.453Z,183.32
2024-01-24T02:48:09.556Z,183.23
2024-01-24T02:49:09.560Z,183.57
2024-01-24T02:50:11.409Z,183.60
2024-01-24T02:51:09.503Z,183.72
2024-01-24T02:52:09.520Z,183.84
2024-01-24T02:53:09.532Z,183.94
2024-01-24T02:54:09.535Z,184.39
2024-01-24T02:55:09.542Z,184.86
2024-01-24T02:56:09.567Z,183.84
2024-01-24T02:57:09.596Z,183.70
2024-01-24T02:58:09.572Z,183.73
2024-01-24T02:59:09.582Z,185.11
2024-01-24T03:00:09.587Z,184.39
2024-01-24T03:01:09.680Z,183.77
2024-01-24T03:02:09.616Z,183.61
2024-01-24T03:03:09.718Z,183.62
2024-01-24T03:04:09.749Z,183.38
2024-01-24T03:05:09.644Z,183.88
2024-01-24T03:06:09.664Z,184.64
2024-01-24T03:07:09.752Z,182.83
2024-01-24T03:08:09.679Z,184.44
2024-01-24T03:09:09.684Z,184.66
2024-01-24T03:10:09.734Z,184.84
2024-01-24T03:11:09.684Z,184.41
2024-01-24T03:12:09.694Z,184.82
2024-01-24T03:13:09.755Z,184.59
2024-01-24T03:14:09.707Z,183.06
2024-01-24T03:15:09.719Z,183.96
2024-01-24T03:16:09.742Z,184.29
2024-01-24T03:17:09.728Z,184.47
2024-01-24T03:18:09.815Z,185.03
2024-01-24T03:19:09.806Z,183.61
2024-01-24T03:20:09.744Z,183.76
2024-01-24T03:21:09.757Z,183.70
2024-01-24T03:22:09.814Z,183.16
2024-01-24T03:23:09.847Z,183.96
2024-01-24T03:24:09.900Z,183.66
2024-01-24T03:25:09.958Z,183.68
2024-01-24T03:26:09.988Z,183.38
2024-01-24T03:27:10.045Z,183.02
2024-01-24T03:28:10.086Z,184.32
2024-01-24T03:29:10.127Z,183.99
2024-01-24T03:30:10.188Z,182.26
2024-01-24T03:31:10.225Z,183.11
2024-01-24T03:32:10.268Z,183.13
2024-01-24T03:33:10.315Z,183.16
2024-01-24T03:34:10.342Z,183.68
2024-01-24T03:35:10.304Z,183.84
2024-01-24T03:36:10.263Z,183.13
2024-01-24T03:37:10.284Z,183.36
2024-01-24T03:38:10.286Z,183.33
2024-01-24T03:39:10.295Z,183.77
2024-01-24T03:40:10.301Z,184.00
2024-01-24T03:41:10.338Z,184.62
2024-01-24T03:42:10.337Z,184.36
2024-01-24T03:43:10.339Z,183.26
2024-01-24T03:44:10.387Z,183.15
2024-01-24T03:45:10.364Z,183.90
2024-01-24T03:46:10.369Z,182.73
2024-01-24T03:47:10.378Z,184.04
2024-01-24T03:48:10.426Z,183.98
2024-01-24T03:49:10.411Z,183.38
2024-01-24T03:50:10.449Z,184.36
2024-01-24T03:51:10.514Z,183.54
2024-01-24T03:52:10.522Z,183.58
2024-01-24T03:53:10.526Z,183.63
2024-01-24T03:54:10.534Z,182.70
2024-01-24T03:55:10.584Z,182.97
2024-01-24T03:56:10.591Z,183.36
2024-01-24T03:57:10.634Z,183.14
2024-01-24T03:58:10.585Z,183.96
2024-01-24T03:59:10.600Z,184.58
2024-01-24T04:00:10.597Z,184.00
2024-01-24T04:01:10.770Z,183.98
2024-01-24T04:02:12.032Z,183.23
2024-01-24T04:03:10.640Z,183.41
2024-01-24T04:04:10.760Z,182.02
2024-01-24T04:05:10.656Z,182.11
2024-01-24T04:06:10.698Z,182.12
2024-01-24T04:07:10.761Z,182.61
2024-01-24T04:08:10.673Z,183.23
2024-01-24T04:09:10.679Z,182.10
2024-01-24T04:10:10.682Z,182.45
2024-01-24T04:11:10.694Z,182.68
2024-01-24T04:12:10.718Z,183.01
2024-01-24T04:13:10.711Z,184.09
2024-01-24T04:14:10.747Z,183.14
2024-01-24T04:15:10.743Z,183.36
2024-01-24T04:16:10.815Z,182.79
2024-01-24T04:17:10.762Z,182.90
2024-01-24T04:18:10.846Z,182.53
2024-01-24T04:19:10.824Z,183.45
2024-01-24T04:20:10.776Z,183.46
2024-01-24T04:21:10.800Z,183.45
2024-01-24T04:22:10.817Z,183.35
2024-01-24T04:23:10.811Z,183.62
2024-01-24T04:24:10.805Z,184.23
2024-01-24T04:25:10.821Z,182.85
2024-01-24T04:26:10.829Z,182.48
2024-01-24T04:27:10.836Z,182.97
2024-01-24T04:28:10.837Z,183.29
2024-01-24T04:29:13.611Z,182.89
2024-01-24T04:30:10.854Z,184.42
2024-01-24T04:31:10.867Z,183.91
2024-01-24T04:32:10.890Z,183.13
2024-01-24T04:33:11.005Z,183.51
2024-01-24T04:34:11.029Z,182.86
2024-01-24T04:35:10.892Z,183.46
2024-01-24T04:36:10.898Z,183.47
2024-01-24T04:37:10.941Z,183.51
2024-01-24T04:38:10.908Z,183.79
2024-01-24T04:39:10.930Z,183.51
2024-01-24T04:40:10.947Z,183.59
2024-01-24T04:41:10.941Z,183.00
2024-01-24T04:42:16.188Z,183.02
2024-01-24T04:43:11.978Z,183.06
2024-01-24T04:44:10.972Z,183.06
2024-01-24T04:45:18.306Z,50.00
2024-01-24T04:46:18.256Z,50.00
2024-01-24T04:47:18.317Z,50.00
2024-01-24T04:48:18.422Z,50.00
2024-01-24T04:49:26.585Z,50.00
2024-01-24T04:50:18.606Z,50.00
2024-01-24T04:51:18.373Z,50.00
2024-01-24T04:52:18.321Z,50.00
2024-01-24T04:53:18.412Z,50.00
2024-01-24T04:54:18.475Z,50.00
2024-01-24T04:55:18.347Z,50.00
2024-01-24T04:56:18.363Z,50.00
2024-01-24T04:57:18.375Z,52.27
2024-01-24T04:58:18.392Z,50.22
2024-01-24T04:59:18.459Z,50.89
2024-01-24T05:00:18.428Z,51.85
2024-01-24T05:01:18.516Z,52.59
2024-01-24T05:02:18.408Z,51.75
2024-01-24T05:03:18.442Z,51.87
2024-01-24T05:04:18.466Z,52.00
2024-01-24T05:05:18.526Z,51.03
2024-01-24T05:06:18.546Z,51.23
2024-01-24T05:07:19.006Z,50.93
2024-01-24T05:08:18.533Z,50.88
2024-01-24T05:09:18.611Z,50.67
2024-01-24T05:10:18.649Z,54.01
2024-01-24T05:11:18.693Z,52.95
2024-01-24T05:12:18.801Z,52.67
2024-01-24T05:13:18.795Z,52.55
2024-01-24T05:14:18.838Z,52.39
2024-01-24T05:15:18.972Z,51.84
2024-01-24T05:16:18.946Z,51.25
2024-01-24T05:17:19.003Z,51.90
2024-01-24T05:18:19.145Z,53.83
2024-01-24T05:19:19.194Z,53.56
2024-01-24T05:20:19.124Z,53.56
2024-01-24T05:21:19.196Z,51.86
2024-01-24T05:22:19.149Z,53.64
2024-01-24T05:23:19.146Z,52.15
2024-01-24T05:24:19.220Z,53.70
2024-01-24T05:25:19.155Z,53.92
2024-01-24T05:26:19.177Z,53.65
2024-01-24T05:27:19.217Z,52.40
2024-01-24T05:28:19.197Z,52.75
2024-01-24T05:29:19.227Z,51.43
2024-01-24T05:30:29.954Z,48.58
2024-01-24T05:31:20.289Z,48.30
2024-01-24T05:32:19.269Z,46.31
2024-01-24T05:33:19.379Z,42.82
2024-01-24T05:34:19.360Z,36.96
2024-01-24T05:35:19.313Z,33.21
2024-01-24T05:36:19.343Z,29.55
2024-01-24T05:37:19.354Z,44.04
2024-01-24T05:38:19.344Z,50.61
2024-01-24T05:39:19.394Z,50.00
2024-01-24T05:40:19.370Z,51.41
2024-01-24T05:41:19.403Z,48.29
2024-01-24T05:42:19.448Z,46.80
2024-01-24T05:43:19.439Z,44.02
2024-01-24T05:44:19.462Z,40.23
2024-01-24T05:45:19.505Z,37.15
2024-01-24T05:46:19.503Z,50.59
2024-01-24T05:47:19.535Z,53.29
2024-01-24T05:48:19.682Z,47.27
2024-01-24T05:49:19.819Z,42.59
2024-01-24T05:50:19.564Z,37.18
2024-01-24T05:51:19.660Z,34.49
2024-01-24T05:52:19.627Z,30.97
2024-01-24T05:53:19.625Z,43.52
2024-01-24T05:54:19.670Z,43.61
2024-01-24T05:55:19.655Z,43.72
2024-01-24T05:56:19.662Z,42.25
2024-01-24T05:57:19.728Z,42.25
2024-01-24T05:58:19.702Z,44.33
2024-01-24T05:59:19.731Z,43.35
2024-01-24T06:00:19.821Z,43.66
2024-01-24T06:01:19.831Z,40.60
2024-01-24T06:02:19.782Z,40.67
2024-01-24T06:03:19.834Z,40.26
2024-01-24T06:04:19.917Z,50.00
2024-01-24T06:05:19.941Z,50.00
2024-01-24T06:06:20.023Z,50.42
2024-01-24T06:07:19.979Z,49.78
2024-01-24T06:08:19.924Z,49.35
2024-01-24T06:09:20.101Z,51.59
2024-01-24T06:10:19.975Z,50.90
2024-01-24T06:11:20.017Z,50.00
2024-01-24T06:12:20.052Z,51.33
2024-01-24T06:13:20.065Z,50.00
2024-01-24T06:14:20.071Z,50.00
2024-01-24T06:15:20.121Z,50.00
2024-01-24T06:16:20.132Z,50.12
2024-01-24T06:17:20.148Z,50.42
2024-01-24T06:18:20.305Z,51.30
2024-01-24T06:19:20.208Z,52.94
2024-01-24T06:20:20.201Z,55.62
2024-01-24T06:21:20.236Z,56.47
2024-01-24T06:22:20.248Z,57.57
2024-01-24T06:23:20.278Z,59.40
2024-01-24T06:24:20.864Z,59.51
2024-01-24T06:25:20.335Z,62.65
2024-01-24T06:26:20.352Z,62.01
2024-01-24T06:27:20.434Z,63.53
2024-01-24T06:28:20.382Z,65.57
2024-01-24T06:30:14.824Z,64.77
2024-01-24T06:30:23.569Z,63.96
2024-01-24T06:31:20.524Z,64.86
2024-01-24T06:32:20.475Z,65.00
2024-01-24T06:33:20.545Z,65.79
2024-01-24T06:34:20.549Z,66.12
2024-01-24T06:35:20.518Z,68.42
2024-01-24T06:36:20.591Z,69.61
2024-01-24T06:37:20.556Z,68.42
2024-01-24T06:38:20.571Z,68.56
2024-01-24T06:39:20.622Z,67.84
2024-01-24T06:40:20.614Z,66.30
2024-01-24T06:41:20.643Z,66.87
2024-01-24T06:42:20.654Z,63.71
2024-01-24T06:43:20.656Z,62.39
2024-01-24T06:44:20.664Z,60.99
2024-01-24T06:45:20.926Z,56.71
2024-01-24T06:46:20.701Z,52.13
2024-01-24T06:47:20.722Z,50.73
2024-01-24T06:48:20.805Z,50.65
2024-01-24T06:49:20.825Z,53.96
2024-01-24T06:50:20.789Z,54.04
2024-01-24T06:51:20.845Z,54.75
2024-01-24T06:52:20.843Z,56.80
2024-01-24T06:53:20.782Z,60.11
2024-01-24T06:54:20.845Z,67.07
2024-01-24T06:55:20.793Z,54.69
2024-01-24T06:56:20.854Z,57.59
2024-01-24T06:57:20.833Z,62.99
2024-01-24T06:58:20.825Z,71.15
2024-01-24T06:59:20.855Z,85.90
2024-01-24T07:00:20.886Z,91.92
2024-01-24T07:01:20.940Z,94.79
2024-01-24T07:02:20.864Z,99.86
2024-01-24T07:03:23.457Z,103.70
2024-01-24T07:04:20.939Z,104.00
2024-01-24T07:05:20.899Z,105.47
2024-01-24T07:06:21.081Z,108.80
2024-01-24T07:07:20.923Z,114.16
2024-01-24T07:08:20.908Z,121.82
2024-01-24T07:09:20.931Z,125.83
2024-01-24T07:10:20.902Z,128.01
2024-01-24T07:11:20.915Z,130.46
2024-01-24T07:12:20.915Z,131.35
2024-01-24T07:13:20.912Z,132.46
2024-01-24T07:14:20.977Z,134.21
2024-01-24T07:15:20.930Z,135.77
2024-01-24T07:16:20.921Z,134.02
2024-01-24T07:17:20.958Z,136.79
2024-01-24T07:18:21.049Z,136.86
2024-01-24T07:19:21.114Z,136.29
2024-01-24T07:20:20.968Z,137.50
2024-01-24T07:21:20.974Z,137.66
2024-01-24T07:22:20.985Z,135.59
2024-01-24T07:23:21.005Z,135.99
2024-01-24T07:24:21.041Z,135.70
2024-01-24T07:25:21.193Z,133.52
2024-01-24T07:26:21.080Z,133.22
2024-01-24T07:27:21.190Z,130.94
2024-01-24T07:28:21.179Z,127.81
2024-01-24T07:29:21.161Z,125.50
2024-01-24T07:30:21.310Z,122.26
2024-01-24T07:31:21.222Z,119.78
2024-01-24T07:32:21.247Z,118.13
2024-01-24T07:33:24.983Z,115.49
2024-01-24T07:34:21.368Z,115.51
2024-01-24T07:35:21.317Z,113.36
2024-01-24T07:36:21.309Z,112.50
2024-01-24T07:37:21.298Z,111.30
2024-01-24T07:38:21.282Z,110.76
2024-01-24T07:39:21.396Z,110.37
2024-01-24T07:40:21.297Z,109.45
2024-01-24T07:41:21.300Z,107.60
2024-01-24T07:42:21.324Z,105.52
2024-01-24T07:43:21.322Z,103.12
2024-01-24T07:44:21.363Z,100.86
2024-01-24T07:45:21.333Z,95.96
2024-01-24T07:46:21.340Z,92.24
2024-01-24T07:47:21.327Z,89.98
2024-01-24T07:48:21.472Z,87.42
2024-01-24T07:49:21.486Z,86.81
2024-01-24T07:50:21.458Z,84.31
2024-01-24T07:51:21.383Z,106.66
2024-01-24T07:52:28.986Z,110.03
2024-01-24T07:53:22.374Z,108.10
2024-01-24T07:54:21.422Z,100.23
2024-01-24T07:55:28.311Z,95.65
2024-01-24T07:57:21.492Z,87.11
2024-01-24T07:58:21.588Z,82.31
2024-01-24T07:59:21.436Z,78.92
2024-01-24T08:00:21.505Z,76.20
2024-01-24T08:01:22.262Z,75.43
2024-01-24T08:02:21.484Z,73.75
2024-01-24T08:03:21.569Z,70.55
2024-01-24T08:04:21.695Z,70.10
2024-01-24T08:05:21.572Z,68.23
2024-01-24T08:06:21.729Z,67.63
2024-01-24T08:07:21.629Z,67.50
2024-01-24T08:08:21.622Z,68.37
2024-01-24T08:09:21.662Z,67.51
2024-01-24T08:10:21.765Z,66.34
2024-01-24T08:11:21.652Z,66.29
2024-01-24T08:12:21.728Z,66.06
2024-01-24T08:13:21.690Z,65.68
2024-01-24T08:14:21.706Z,69.29
2024-01-24T08:15:21.760Z,67.45
2024-01-24T08:16:21.743Z,66.23
2024-01-24T08:17:21.783Z,63.04
2024-01-24T08:18:21.808Z,63.59
2024-01-24T08:19:21.765Z,63.16
2024-01-24T08:20:21.831Z,60.04
2024-01-24T08:21:21.841Z,61.08
2024-01-24T08:22:21.803Z,60.27
2024-01-24T08:23:24.644Z,59.14
2024-01-24T08:24:21.860Z,58.69
2024-01-24T08:25:21.812Z,54.81
2024-01-24T08:26:21.801Z,55.10
2024-01-24T08:27:21.833Z,55.12
2024-01-24T08:28:21.932Z,57.15
2024-01-24T08:29:26.149Z,56.56
2024-01-24T08:30:22.813Z,56.65
2024-01-24T08:31:21.773Z,56.89
2024-01-24T08:32:21.821Z,57.26
2024-01-24T08:33:21.867Z,58.03
2024-01-24T08:34:21.846Z,59.20
2024-01-24T08:35:21.775Z,57.95
2024-01-24T08:36:21.783Z,59.84
2024-01-24T08:37:21.765Z,58.40
2024-01-24T08:38:21.745Z,56.60
2024-01-24T08:39:21.768Z,55.53
2024-01-24T08:40:21.736Z,52.64
2024-01-24T08:41:21.758Z,51.26
2024-01-24T08:42:21.770Z,50.12
2024-01-24T08:43:21.735Z,53.34
2024-01-24T08:44:21.732Z,53.44
2024-01-24T08:45:21.736Z,53.97
2024-01-24T08:46:21.743Z,55.25
2024-01-24T08:47:21.714Z,56.14
2024-01-24T08:48:21.874Z,59.91
2024-01-24T08:49:21.795Z,61.09
2024-01-24T08:50:21.740Z,60.17
2024-01-24T08:51:21.769Z,59.12
2024-01-24T08:52:21.740Z,57.09
2024-01-24T08:53:21.718Z,56.17
2024-01-24T08:54:21.763Z,54.58
2024-01-24T08:55:21.716Z,56.12
2024-01-24T08:56:21.726Z,54.45
2024-01-24T08:57:21.794Z,56.31
2024-01-24T08:58:21.721Z,56.38
2024-01-24T08:59:21.726Z,55.74
2024-01-24T09:00:21.753Z,56.01
2024-01-24T09:01:21.851Z,55.49
2024-01-24T09:02:21.711Z,55.61
2024-01-24T09:03:21.793Z,54.89
2024-01-24T09:04:21.773Z,52.41
2024-01-24T09:05:21.738Z,50.00
2024-01-24T09:06:21.749Z,50.05
2024-01-24T09:07:21.712Z,50.00
2024-01-24T09:08:21.717Z,51.55
2024-01-24T09:09:21.768Z,50.74
2024-01-24T09:10:21.788Z,50.31
2024-01-24T09:11:21.728Z,50.17
2024-01-24T09:12:21.790Z,50.95
2024-01-24T09:13:21.740Z,50.82
2024-01-24T09:14:21.750Z,50.08
2024-01-24T09:15:21.795Z,51.68
2024-01-24T09:16:21.751Z,52.05
2024-01-24T09:17:21.765Z,52.64
2024-01-24T09:18:22.007Z,54.79
2024-01-24T09:19:21.823Z,56.01
2024-01-24T09:20:21.841Z,56.89
2024-01-24T09:21:21.808Z,58.10
2024-01-24T09:22:21.757Z,60.12
2024-01-24T09:23:21.769Z,60.51
2024-01-24T09:24:21.788Z,59.35
2024-01-24T09:25:21.801Z,57.42
2024-01-24T09:26:21.776Z,57.51
2024-01-24T09:27:21.797Z,57.93
2024-01-24T09:28:21.785Z,57.59
2024-01-24T09:29:21.768Z,58.02
2024-01-24T09:30:21.816Z,59.14
2024-01-24T09:31:21.795Z,60.53
2024-01-24T09:32:21.794Z,63.38
2024-01-24T09:33:21.877Z,62.86
2024-01-24T09:34:21.862Z,62.73
2024-01-24T09:35:21.901Z,63.50
2024-01-24T09:36:22.432Z,62.37
2024-01-24T09:37:21.785Z,61.45
2024-01-24T09:38:21.768Z,61.46
2024-01-24T09:39:21.832Z,60.61
2024-01-24T09:40:21.913Z,60.20
2024-01-24T09:41:21.826Z,60.08
2024-01-24T09:42:21.886Z,59.38
2024-01-24T09:43:21.845Z,59.55
2024-01-24T09:44:21.831Z,59.88
2024-01-24T09:45:21.885Z,57.71
2024-01-24T09:46:21.915Z,56.12
2024-01-24T09:47:21.877Z,55.90
2024-01-24T09:48:21.976Z,51.84
2024-01-24T09:49:21.961Z,50.00
2024-01-24T09:50:21.948Z,50.00
2024-01-24T09:51:21.940Z,50.35
2024-01-24T09:52:21.953Z,50.83
2024-01-24T09:53:22.035Z,50.51
2024-01-24T09:54:22.117Z,50.45
2024-01-24T09:55:22.072Z,50.58
2024-01-24T09:56:22.109Z,51.21
2024-01-24T09:57:22.109Z,52.76
2024-01-24T09:58:22.111Z,54.23
2024-01-24T09:59:22.069Z,56.17
2024-01-24T10:00:22.133Z,59.75
2024-01-24T10:01:22.157Z,58.35
2024-01-24T10:02:22.081Z,61.22
2024-01-24T10:03:22.162Z,63.36
2024-01-24T10:04:22.210Z,62.53
2024-01-24T10:05:22.084Z,64.63
2024-01-24T10:06:22.149Z,70.15
2024-01-24T10:07:22.132Z,71.30
2024-01-24T10:08:22.089Z,73.02
2024-01-24T10:09:22.126Z,75.73
2024-01-24T10:10:22.140Z,77.05
2024-01-24T10:11:22.085Z,79.31
2024-01-24T10:12:22.180Z,81.02
2024-01-24T10:13:22.927Z,84.50
2024-01-24T10:14:22.115Z,86.82
2024-01-24T10:15:22.181Z,89.66
2024-01-24T10:16:22.143Z,91.90
2024-01-24T10:17:22.177Z,93.22
2024-01-24T10:18:22.242Z,94.51
2024-01-24T10:19:22.244Z,97.04
2024-01-24T10:20:22.181Z,98.59
2024-01-24T10:21:22.288Z,100.79
2024-01-24T10:22:22.365Z,100.84
2024-01-24T10:23:22.192Z,101.46
2024-01-24T10:24:22.228Z,101.99
2024-01-24T10:25:22.204Z,102.09
2024-01-24T10:26:22.219Z,102.57
2024-01-24T10:27:22.261Z,103.88
2024-01-24T10:28:22.243Z,102.26
2024-01-24T10:29:22.203Z,103.35
2024-01-24T10:30:22.251Z,105.09
2024-01-24T10:31:22.341Z,107.99
2024-01-24T10:32:22.198Z,112.54
2024-01-24T10:33:22.312Z,114.01
2024-01-24T10:34:22.324Z,112.79
2024-01-24T10:35:22.234Z,113.48
2024-01-24T10:36:27.555Z,114.52
2024-01-24T10:37:23.620Z,114.53
2024-01-24T10:38:22.182Z,112.29
2024-01-24T10:39:22.179Z,111.67
2024-01-24T10:40:22.159Z,111.78
2024-01-24T10:41:22.144Z,112.74
2024-01-24T10:42:22.205Z,111.40
2024-01-24T10:43:22.140Z,109.15
2024-01-24T10:44:22.175Z,108.15
2024-01-24T10:45:22.261Z,106.89
2024-01-24T10:46:22.170Z,105.07
2024-01-24T10:47:22.197Z,102.43
2024-01-24T10:48:22.287Z,92.93
2024-01-24T10:49:22.170Z,90.85
2024-01-24T10:50:22.121Z,85.88
2024-01-24T10:51:22.136Z,85.93
2024-01-24T10:52:22.159Z,84.89
2024-01-24T10:53:22.135Z,79.34
2024-01-24T10:54:22.142Z,76.79
2024-01-24T10:55:22.099Z,73.82
2024-01-24T10:56:22.101Z,70.98
2024-01-24T10:57:22.116Z,67.67
2024-01-24T10:58:22.123Z,62.77
2024-01-24T10:59:22.120Z,59.87
2024-01-24T11:00:22.156Z,53.49
2024-01-24T11:01:22.191Z,52.47
2024-01-24T11:02:22.162Z,51.17
2024-01-24T11:03:22.225Z,51.62
2024-01-24T11:04:22.133Z,52.92
2024-01-24T11:05:22.281Z,53.95
2024-01-24T11:06:22.159Z,56.02
2024-01-24T11:07:22.153Z,54.03
2024-01-24T11:08:23.690Z,53.29
2024-01-24T11:09:22.193Z,52.92
2024-01-24T11:10:22.227Z,52.72
2024-01-24T11:11:22.179Z,56.37
2024-01-24T11:12:22.216Z,54.47
2024-01-24T11:13:22.210Z,50.59
2024-01-24T11:14:22.178Z,50.72
2024-01-24T11:15:22.274Z,51.18
2024-01-24T11:16:22.185Z,52.54
2024-01-24T11:17:22.242Z,55.04
2024-01-24T11:18:22.272Z,62.65
2024-01-24T11:19:22.472Z,63.88
2024-01-24T11:20:22.236Z,66.74
2024-01-24T11:21:22.247Z,70.81
2024-01-24T11:22:27.125Z,71.95
2024-01-24T11:23:23.220Z,72.14
2024-01-24T11:24:22.219Z,73.65
2024-01-24T11:25:22.238Z,77.38
2024-01-24T11:26:22.334Z,84.40
2024-01-24T11:27:23.086Z,93.86
2024-01-24T11:28:22.230Z,98.18
2024-01-24T11:29:22.229Z,100.41
2024-01-24T11:30:22.322Z,103.78
2024-01-24T11:31:22.212Z,106.33
2024-01-24T11:32:22.221Z,109.41
2024-01-24T11:33:22.269Z,109.00
2024-01-24T11:34:22.313Z,110.42
2024-01-24T11:35:22.290Z,111.16
2024-01-24T11:36:22.222Z,111.19
2024-01-24T11:37:22.218Z,110.79
2024-01-24T11:38:26.670Z,111.39
2024-01-24T11:39:23.238Z,111.50
2024-01-24T11:40:22.212Z,111.95
2024-01-24T11:41:22.171Z,113.34
2024-01-24T11:42:22.171Z,111.68
2024-01-24T11:43:22.162Z,112.82
2024-01-24T11:44:22.175Z,114.70
2024-01-24T11:45:22.297Z,118.02
2024-01-24T11:46:22.254Z,122.83
2024-01-24T11:47:22.167Z,124.82
2024-01-24T11:48:22.340Z,123.90
2024-01-24T11:49:22.179Z,123.88
2024-01-24T11:50:22.650Z,124.10
2024-01-24T11:51:22.258Z,124.72
2024-01-24T11:52:22.116Z,123.70
2024-01-24T11:53:22.143Z,123.93
2024-01-24T11:54:22.154Z,124.07
2024-01-24T11:55:22.173Z,123.47
2024-01-24T11:56:23.640Z,122.47
2024-01-24T11:57:22.098Z,122.70
2024-01-24T11:58:22.066Z,121.44
2024-01-24T11:59:22.055Z,121.17
2024-01-24T12:00:22.147Z,120.07
2024-01-24T12:01:22.150Z,119.97
2024-01-24T12:02:22.072Z,119.07
2024-01-24T12:03:22.101Z,119.53
2024-01-24T12:04:22.221Z,117.56
2024-01-24T12:05:22.074Z,116.23
2024-01-24T12:06:22.179Z,115.25
2024-01-24T12:07:22.166Z,113.89
2024-01-24T12:08:22.050Z,112.65
2024-01-24T12:09:22.078Z,110.71
2024-01-24T12:10:22.047Z,109.33
2024-01-24T12:11:22.041Z,107.90
2024-01-24T12:12:22.050Z,105.66
2024-01-24T12:13:22.037Z,104.87
2024-01-24T12:14:22.018Z,103.59
2024-01-24T12:15:22.095Z,102.24
2024-01-24T12:16:22.042Z,100.58
2024-01-24T12:17:22.000Z,99.96
2024-01-24T12:18:22.388Z,98.97
2024-01-24T12:19:22.114Z,97.55
2024-01-24T12:20:22.137Z,96.66
2024-01-24T12:21:22.050Z,96.32
2024-01-24T12:22:22.022Z,95.77
2024-01-24T12:23:21.978Z,95.04
2024-01-24T12:24:22.004Z,92.50
2024-01-24T12:25:22.013Z,92.22
2024-01-24T12:26:21.965Z,89.65
2024-01-24T12:27:21.993Z,89.23
2024-01-24T12:28:23.041Z,86.99
2024-01-24T12:29:21.904Z,87.02
2024-01-24T12:30:21.934Z,88.21
2024-01-24T12:31:21.934Z,85.45
2024-01-24T12:32:21.896Z,84.72
2024-01-24T12:33:22.104Z,81.99
2024-01-24T12:34:21.992Z,82.01
2024-01-24T12:35:22.976Z,81.10
2024-01-24T12:36:21.885Z,82.13
2024-01-24T12:37:21.856Z,79.94
2024-01-24T12:38:21.852Z,78.32
2024-01-24T12:39:21.855Z,79.13
2024-01-24T12:40:21.822Z,79.96